Asbury, Illinois
Current Conditions -  °F | °C
As of 3:15 AM on Thursday 27 Nov 2014 (Local Time) from KCUL Reporting Station
Overcast Overcast  
Wind Chill: 27°   Ceiling: 6000
Heat Index: 33°   Visibility: 7mi
Dew Point: 32°   Wind: 7mph
Humidity: 97%   Direction: 350°N
Pressure: 30.24"   Gusts: NA
Location:  37.8866°N, 88.266°W
Report Text: KCUL 270915Z AUTO 35006KT 7SM SCT031 OVC060 01/00 A3024 RMK AO2 T00050001
Loading
Personal Weather Stations






























Interactive Weather Map New forecast layout! Learn more

10-Day Weather Forecast

Advertisements
Track Severe Weather on mobile